createdAt,value
2022-11-16T00:01:06.579Z,2.70
2022-11-16T00:03:35.774Z,3.00
2022-11-16T00:06:06.213Z,2.90
2022-11-16T00:08:40.668Z,3.10
2022-11-16T00:11:12.120Z,2.70
2022-11-16T00:13:42.728Z,3.00
2022-11-16T00:16:16.652Z,2.90
2022-11-16T00:18:45.616Z,2.70
2022-11-16T00:21:13.694Z,3.10
2022-11-16T00:23:41.870Z,3.20
2022-11-16T00:26:13.066Z,3.10
2022-11-16T00:28:41.253Z,2.80
2022-11-16T00:31:11.011Z,2.60
2022-11-16T00:33:40.276Z,2.40
2022-11-16T00:36:11.190Z,2.60
2022-11-16T00:38:42.070Z,2.50
2022-11-16T00:41:10.583Z,2.50
2022-11-16T00:43:38.860Z,2.40
2022-11-16T00:46:07.141Z,2.40
2022-11-16T00:48:36.771Z,2.50
2022-11-16T00:51:05.340Z,1.90
2022-11-16T00:53:33.926Z,2.10
2022-11-16T00:56:02.412Z,1.90
2022-11-16T00:58:31.528Z,2.10
2022-11-16T01:01:08.390Z,2.10
2022-11-16T01:03:36.707Z,1.90
2022-11-16T01:06:08.474Z,2.00
2022-11-16T01:08:38.554Z,1.90
2022-11-16T01:11:08.195Z,1.80
2022-11-16T01:13:36.547Z,2.10
2022-11-16T01:16:05.031Z,1.90
2022-11-16T01:18:33.600Z,1.90
2022-11-16T01:21:02.114Z,1.80
2022-11-16T01:23:30.391Z,1.50
2022-11-16T01:25:59.586Z,1.80
2022-11-16T01:28:31.672Z,1.60
2022-11-16T01:31:00.452Z,1.30
2022-11-16T01:33:30.569Z,1.60
2022-11-16T01:35:59.260Z,1.70
2022-11-16T01:38:30.022Z,1.90
2022-11-16T01:40:58.378Z,1.50
2022-11-16T01:43:26.681Z,1.80
2022-11-16T01:45:58.003Z,1.70
2022-11-16T01:48:29.280Z,1.70
2022-11-16T01:50:58.050Z,1.10
2022-11-16T01:53:26.332Z,1.70
2022-11-16T01:55:55.331Z,1.40
2022-11-16T01:58:26.270Z,1.40
2022-11-16T02:00:54.409Z,1.50
2022-11-16T02:03:22.830Z,1.70
2022-11-16T02:06:05.724Z,1.90
2022-11-16T02:08:57.403Z,2.30
2022-11-16T02:11:31.632Z,2.30
2022-11-16T02:14:17.989Z,2.40
2022-11-16T02:16:45.969Z,2.30
2022-11-16T02:19:52.134Z,4.90
2022-11-16T02:23:00.334Z,4.50
2022-11-16T02:25:46.625Z,3.50
2022-11-16T02:28:14.675Z,3.50
2022-11-16T02:30:49.336Z,4.40
2022-11-16T02:33:22.697Z,2.80
2022-11-16T02:35:56.831Z,2.80
2022-11-16T02:38:32.141Z,3.40
2022-11-16T02:41:10.671Z,3.10
2022-11-16T02:43:43.501Z,2.80
2022-11-16T02:46:36.258Z,2.70
2022-11-16T02:49:11.249Z,1.80
2022-11-16T02:51:41.314Z,2.30
2022-11-16T02:54:18.187Z,1.80
2022-11-16T02:56:49.038Z,2.20
2022-11-16T02:59:17.883Z,1.70
2022-11-16T03:02:01.924Z,1.60
2022-11-16T03:04:42.287Z,1.70
2022-11-16T03:07:15.311Z,1.70
2022-11-16T03:09:45.706Z,1.70
2022-11-16T03:12:23.607Z,1.90
2022-11-16T03:14:59.772Z,1.70
2022-11-16T03:17:37.388Z,1.70
2022-11-16T03:20:13.241Z,1.80
2022-11-16T03:22:45.616Z,1.70
2022-11-16T03:25:18.400Z,1.80
2022-11-16T03:28:08.491Z,1.60
2022-11-16T03:30:42.989Z,1.40
2022-11-16T03:33:29.509Z,1.20
2022-11-16T03:36:38.097Z,1.30
2022-11-16T03:39:12.115Z,2.50
2022-11-16T03:41:44.480Z,1.40
2022-11-16T03:44:15.734Z,1.20
2022-11-16T03:46:45.656Z,1.40
2022-11-16T03:49:13.927Z,1.80
2022-11-16T03:51:42.617Z,2.00
2022-11-16T03:54:10.699Z,2.00
2022-11-16T03:56:38.769Z,2.60
2022-11-16T03:59:07.060Z,2.70
2022-11-16T04:01:37.394Z,2.60
2022-11-16T04:04:08.908Z,1.80
2022-11-16T04:06:37.315Z,2.00
2022-11-16T04:09:05.802Z,1.80
2022-11-16T04:11:34.082Z,1.70
2022-11-16T04:14:06.663Z,1.40
2022-11-16T04:16:37.707Z,1.50
2022-11-16T04:19:06.196Z,1.50
2022-11-16T04:21:40.918Z,1.80
2022-11-16T04:24:25.891Z,1.80
2022-11-16T04:26:59.143Z,1.70
2022-11-16T04:29:27.660Z,1.90
2022-11-16T04:31:56.246Z,2.10
2022-11-16T04:34:24.939Z,1.90
2022-11-16T04:36:54.339Z,1.90
2022-11-16T04:39:22.489Z,1.60
2022-11-16T04:41:50.618Z,1.60
2022-11-16T04:44:19.229Z,1.80
2022-11-16T04:46:47.780Z,2.10
2022-11-16T04:49:16.465Z,2.00
2022-11-16T04:51:44.644Z,2.20
2022-11-16T04:54:13.172Z,1.90
2022-11-16T04:56:41.842Z,2.00
2022-11-16T04:59:10.734Z,2.30
2022-11-16T05:01:39.281Z,2.00
2022-11-16T05:04:08.023Z,2.30
2022-11-16T05:06:36.171Z,1.90
2022-11-16T05:09:04.450Z,2.30
2022-11-16T05:11:32.589Z,2.60
2022-11-16T05:14:00.914Z,1.70
2022-11-16T05:16:29.119Z,1.90
2022-11-16T05:18:57.888Z,2.10
2022-11-16T05:21:25.977Z,2.40
2022-11-16T05:23:54.208Z,2.00
2022-11-16T05:26:22.408Z,2.00
2022-11-16T05:28:50.533Z,1.30
2022-11-16T05:31:18.673Z,1.70
2022-11-16T05:33:47.166Z,1.80
2022-11-16T05:36:15.353Z,1.40
2022-11-16T05:38:43.587Z,1.50
2022-11-16T05:41:11.967Z,1.50
2022-11-16T05:43:40.161Z,1.30
2022-11-16T05:46:08.334Z,1.60
2022-11-16T05:48:37.303Z,1.90
2022-11-16T05:51:05.785Z,2.30
2022-11-16T05:53:33.899Z,2.60
2022-11-16T05:56:02.103Z,2.80
2022-11-16T05:58:30.319Z,3.00
2022-11-16T06:00:58.653Z,3.10
2022-11-16T06:03:29.901Z,3.40
2022-11-16T06:05:58.642Z,2.40
2022-11-16T06:08:26.907Z,2.60
2022-11-16T06:10:55.112Z,2.70
2022-11-16T06:13:23.257Z,2.30
2022-11-16T06:15:51.434Z,2.60
2022-11-16T06:18:19.812Z,2.40
2022-11-16T06:20:48.620Z,2.70
2022-11-16T06:23:16.877Z,2.20
2022-11-16T06:25:45.550Z,2.30
2022-11-16T06:28:13.865Z,2.00
2022-11-16T06:30:42.011Z,2.20
2022-11-16T06:33:10.283Z,2.40
2022-11-16T06:35:38.513Z,2.10
2022-11-16T06:38:06.842Z,2.20
2022-11-16T06:40:35.632Z,1.90
2022-11-16T06:43:04.330Z,2.10
2022-11-16T06:45:32.353Z,2.20
2022-11-16T06:48:00.626Z,2.20
2022-11-16T06:50:29.469Z,2.00
2022-11-16T06:52:57.500Z,2.70
2022-11-16T06:55:25.803Z,2.10
2022-11-16T06:57:53.995Z,2.50
2022-11-16T07:00:22.205Z,2.40
2022-11-16T07:02:50.889Z,2.40
2022-11-16T07:05:19.041Z,2.30
2022-11-16T07:07:47.697Z,2.60
2022-11-16T07:10:15.919Z,2.40
2022-11-16T07:12:44.161Z,2.90
2022-11-16T07:15:12.345Z,2.70
2022-11-16T07:17:40.908Z,2.30
2022-11-16T07:20:10.133Z,2.50
2022-11-16T07:22:38.278Z,2.20
2022-11-16T07:25:07.376Z,2.00
2022-11-16T07:27:35.671Z,1.90
2022-11-16T07:30:04.572Z,2.30
2022-11-16T07:32:32.837Z,2.50
2022-11-16T07:35:01.094Z,2.20
2022-11-16T07:37:29.278Z,2.50
2022-11-16T07:39:57.552Z,2.30
2022-11-16T07:42:25.842Z,3.00
2022-11-16T07:44:54.220Z,3.30
2022-11-16T07:47:22.609Z,3.40
2022-11-16T07:49:53.950Z,3.40
2022-11-16T07:52:22.182Z,2.60
2022-11-16T07:54:50.346Z,2.90
2022-11-16T07:57:18.397Z,3.40
2022-11-16T07:59:46.538Z,2.30
2022-11-16T08:02:14.686Z,2.50
2022-11-16T08:04:43.223Z,2.00
2022-11-16T08:07:11.479Z,2.30
2022-11-16T08:09:40.167Z,2.10
2022-11-16T08:12:08.326Z,1.80
2022-11-16T08:14:36.461Z,1.90
2022-11-16T08:17:04.980Z,1.30
2022-11-16T08:19:33.116Z,1.70
2022-11-16T08:22:01.289Z,1.20
2022-11-16T08:24:29.645Z,1.20
2022-11-16T08:26:58.191Z,1.00
2022-11-16T08:29:27.128Z,0.90
2022-11-16T08:31:55.777Z,0.90
2022-11-16T08:34:27.229Z,0.80
2022-11-16T08:36:55.709Z,0.50
2022-11-16T08:39:23.996Z,0.50
2022-11-16T08:41:52.139Z,0.50
2022-11-16T08:44:20.751Z,0.60
2022-11-16T08:46:49.213Z,0.60
2022-11-16T08:49:17.805Z,0.60
2022-11-16T08:51:46.087Z,0.50
2022-11-16T08:54:14.668Z,0.40
2022-11-16T08:56:42.848Z,0.50
2022-11-16T08:59:11.025Z,0.50
2022-11-16T09:01:40.193Z,0.40
2022-11-16T09:04:08.405Z,0.40
2022-11-16T09:06:36.793Z,0.30
2022-11-16T09:09:05.380Z,0.50
2022-11-16T09:11:34.172Z,0.40
2022-11-16T09:14:02.555Z,0.40
2022-11-16T09:16:30.936Z,0.20
2022-11-16T09:18:59.242Z,0.20
2022-11-16T09:21:30.629Z,0.20
2022-11-16T09:23:59.007Z,0.30
2022-11-16T09:26:29.047Z,0.40
2022-11-16T09:29:01.196Z,0.40
2022-11-16T09:31:32.062Z,0.30
2022-11-16T09:34:00.657Z,0.30
2022-11-16T09:36:30.227Z,0.30
2022-11-16T09:42:05.845Z,0.50
2022-11-16T09:44:52.941Z,0.30
2022-11-16T09:47:25.213Z,0.40
2022-11-16T09:50:01.524Z,0.50
2022-11-16T09:52:44.591Z,0.40
2022-11-16T09:55:32.626Z,0.50
2022-11-16T09:58:06.538Z,0.50
2022-11-16T10:00:36.304Z,0.70
2022-11-16T10:03:07.514Z,0.40
2022-11-16T10:05:43.954Z,1.60
2022-11-16T10:08:18.707Z,1.90
2022-11-16T10:11:04.179Z,2.70
2022-11-16T10:13:38.388Z,1.00
2022-11-16T10:16:27.443Z,0.80
2022-11-16T10:19:04.623Z,0.40
2022-11-16T10:21:41.607Z,0.50
2022-11-16T10:24:28.312Z,0.50
2022-11-16T10:26:59.520Z,0.60
2022-11-16T10:29:46.668Z,0.50
2022-11-16T10:32:26.908Z,0.60
2022-11-16T10:35:17.448Z,0.40
2022-11-16T10:37:49.261Z,0.50
2022-11-16T10:40:18.253Z,0.50
2022-11-16T10:43:16.521Z,0.40
2022-11-16T10:45:57.283Z,0.50
2022-11-16T10:48:37.574Z,0.50
2022-11-16T10:51:10.106Z,0.40
2022-11-16T10:53:43.591Z,0.50
2022-11-16T10:56:37.431Z,0.60
2022-11-16T10:59:08.114Z,0.90
2022-11-16T11:01:40.355Z,0.70
2022-11-16T11:04:18.383Z,1.00
2022-11-16T11:06:53.843Z,0.50
2022-11-16T11:09:36.641Z,0.40
2022-11-16T11:12:22.614Z,0.50
2022-11-16T11:14:58.510Z,0.60
2022-11-16T11:17:27.502Z,0.60
2022-11-16T11:20:02.101Z,0.30
2022-11-16T11:22:36.113Z,0.50
2022-11-16T11:25:18.926Z,0.50
2022-11-16T11:27:48.128Z,0.40
2022-11-16T11:30:21.488Z,0.60
2022-11-16T11:32:50.933Z,0.60
2022-11-16T11:35:27.549Z,0.60
2022-11-16T11:38:03.353Z,0.30
2022-11-16T11:40:35.831Z,0.70
2022-11-16T11:43:06.279Z,0.50
2022-11-16T11:45:54.702Z,0.40
2022-11-16T11:48:23.211Z,0.40
2022-11-16T11:51:14.288Z,0.40
2022-11-16T11:53:56.305Z,0.50
2022-11-16T11:56:26.351Z,0.70
2022-11-16T11:58:56.775Z,0.40
2022-11-16T12:01:45.898Z,0.40
2022-11-16T12:04:48.173Z,0.50
2022-11-16T12:07:23.258Z,0.30
2022-11-16T12:10:05.579Z,0.40
2022-11-16T12:13:00.527Z,0.70
2022-11-16T12:15:50.246Z,0.50
2022-11-16T12:18:33.972Z,0.90
2022-11-16T12:21:07.983Z,0.80
2022-11-16T12:23:55.192Z,0.40
2022-11-16T12:26:37.698Z,0.50
2022-11-16T12:29:18.363Z,0.50
2022-11-16T12:31:55.775Z,0.70
2022-11-16T12:34:51.264Z,0.60
2022-11-16T12:37:46.263Z,0.70
2022-11-16T12:40:30.691Z,0.60
2022-11-16T12:43:14.943Z,0.50
2022-11-16T12:46:11.153Z,0.60
2022-11-16T12:49:01.749Z,0.70
2022-11-16T12:51:37.378Z,0.40
2022-11-16T12:54:13.461Z,0.40
2022-11-16T12:56:53.509Z,0.60
2022-11-16T12:59:51.545Z,0.50
2022-11-16T13:02:38.563Z,0.40
2022-11-16T13:05:21.285Z,0.80
2022-11-16T13:08:05.722Z,0.70
2022-11-16T13:10:37.083Z,1.00
2022-11-16T13:13:35.500Z,0.60
2022-11-16T13:16:02.296Z,0.70
2022-11-16T13:18:33.230Z,1.20
2022-11-16T13:21:11.840Z,1.20
2022-11-16T13:24:20.998Z,1.50
2022-11-16T13:27:29.149Z,0.80
2022-11-16T13:30:21.496Z,0.90
2022-11-16T13:33:32.942Z,0.70
2022-11-16T13:36:36.323Z,1.10
2022-11-16T13:39:07.396Z,0.70
2022-11-16T13:41:38.532Z,0.40
2022-11-16T13:44:28.794Z,1.00
2022-11-16T13:47:04.473Z,0.70
2022-11-16T13:49:37.115Z,0.60
2022-11-16T13:52:23.156Z,0.70
2022-11-16T13:54:57.775Z,0.60
2022-11-16T13:57:34.418Z,0.80
2022-11-16T14:00:04.153Z,0.50
2022-11-16T14:02:40.286Z,0.50
2022-11-16T14:05:30.562Z,0.60
2022-11-16T14:07:59.309Z,0.60
2022-11-16T14:10:34.113Z,0.50
2022-11-16T14:13:19.437Z,0.90
2022-11-16T14:16:16.970Z,1.20
2022-11-16T14:18:48.010Z,0.90
2022-11-16T14:21:36.486Z,0.60
2022-11-16T14:24:34.036Z,1.40
2022-11-16T14:27:46.329Z,1.00
2022-11-16T14:30:20.244Z,0.70
2022-11-16T14:32:52.195Z,1.00
2022-11-16T14:35:28.772Z,0.70
2022-11-16T14:38:04.529Z,1.10
2022-11-16T14:40:58.911Z,1.00
2022-11-16T14:43:49.662Z,0.70
2022-11-16T14:46:33.058Z,0.80
2022-11-16T14:49:02.513Z,0.80
2022-11-16T14:51:36.992Z,0.80
2022-11-16T14:54:20.153Z,0.80
2022-11-16T14:56:58.672Z,0.80
2022-11-16T14:59:31.065Z,0.80
2022-11-16T15:02:10.889Z,0.80
2022-11-16T15:04:39.541Z,0.90
2022-11-16T15:07:08.281Z,0.70
2022-11-16T15:09:40.701Z,0.60
2022-11-16T15:12:17.677Z,0.90
2022-11-16T15:14:53.041Z,0.80
2022-11-16T15:17:30.120Z,0.70
2022-11-16T15:20:14.455Z,0.60
2022-11-16T15:22:51.390Z,0.70
2022-11-16T15:25:31.995Z,0.60
2022-11-16T15:28:07.039Z,0.80
2022-11-16T15:30:38.109Z,0.50
2022-11-16T15:33:14.885Z,1.00
2022-11-16T15:35:43.270Z,0.60
2022-11-16T15:38:27.086Z,0.60
2022-11-16T15:41:01.232Z,0.50
2022-11-16T15:43:45.355Z,0.80
2022-11-16T15:46:26.329Z,1.00
2022-11-16T15:48:55.372Z,0.80
2022-11-16T15:51:24.325Z,0.50
2022-11-16T15:53:54.856Z,0.70
2022-11-16T15:56:25.917Z,1.10
2022-11-16T15:58:56.488Z,0.70
2022-11-16T16:01:25.995Z,0.70
2022-11-16T16:04:06.603Z,0.50
2022-11-16T16:06:54.696Z,0.80
2022-11-16T16:09:28.863Z,0.80
2022-11-16T16:12:20.566Z,0.60
2022-11-16T16:14:51.206Z,0.70
2022-11-16T16:17:28.384Z,0.70
2022-11-16T16:19:59.848Z,0.90
2022-11-16T16:22:31.385Z,0.60
2022-11-16T16:25:00.307Z,0.90
2022-11-16T16:27:30.309Z,0.80
2022-11-16T16:30:03.192Z,1.00
2022-11-16T16:32:33.938Z,1.10
2022-11-16T16:35:07.785Z,0.80
2022-11-16T16:37:36.224Z,0.90
2022-11-16T16:40:05.239Z,1.20
2022-11-16T16:42:33.498Z,1.00
2022-11-16T16:45:02.284Z,0.80
2022-11-16T16:47:31.500Z,0.90
2022-11-16T16:49:59.978Z,0.70
2022-11-16T16:52:28.262Z,1.00
2022-11-16T16:54:56.541Z,0.90
2022-11-16T16:57:25.126Z,0.70
2022-11-16T16:59:53.308Z,0.90
2022-11-16T17:02:23.692Z,1.00
2022-11-16T17:04:52.301Z,0.90
2022-11-16T17:07:21.628Z,1.00
2022-11-16T17:09:50.063Z,0.80
2022-11-16T17:12:18.707Z,1.00
2022-11-16T17:14:47.427Z,1.10
2022-11-16T17:17:15.932Z,1.00
2022-11-16T17:19:44.484Z,1.50
2022-11-16T17:22:14.119Z,1.20
2022-11-16T17:24:42.488Z,1.60
2022-11-16T17:27:11.771Z,0.80
2022-11-16T17:29:40.144Z,0.80
2022-11-16T17:32:08.630Z,1.00
2022-11-16T17:34:37.322Z,0.80
2022-11-16T17:37:05.705Z,0.90
2022-11-16T17:39:34.192Z,0.80
2022-11-16T17:42:05.138Z,0.80
2022-11-16T17:44:33.822Z,0.90
2022-11-16T17:47:02.344Z,1.10
2022-11-16T17:49:30.689Z,0.90
2022-11-16T17:51:59.396Z,0.90
2022-11-16T17:54:27.762Z,0.90
2022-11-16T17:56:56.246Z,0.90
2022-11-16T17:59:29.818Z,1.00
2022-11-16T18:01:58.847Z,1.00
2022-11-16T18:04:27.439Z,0.90
2022-11-16T18:06:55.877Z,0.90
2022-11-16T18:09:25.638Z,1.90
2022-11-16T18:11:54.020Z,6.60
2022-11-16T18:14:22.396Z,5.90
2022-11-16T18:16:50.881Z,3.40
2022-11-16T18:19:19.688Z,1.10
2022-11-16T18:21:49.490Z,1.50
2022-11-16T18:24:18.310Z,1.60
2022-11-16T18:26:46.876Z,1.20
2022-11-16T18:29:15.217Z,1.40
2022-11-16T18:31:44.044Z,1.20
2022-11-16T18:34:14.511Z,1.30
2022-11-16T18:36:45.549Z,1.40
2022-11-16T18:39:14.208Z,1.90
2022-11-16T18:41:50.093Z,2.10
2022-11-16T18:44:23.284Z,1.40
2022-11-16T18:46:51.739Z,1.40
2022-11-16T18:49:20.246Z,0.90
2022-11-16T18:51:48.415Z,1.10
2022-11-16T18:54:17.073Z,0.90
2022-11-16T18:56:45.276Z,0.80
2022-11-16T18:59:15.092Z,0.70
2022-11-16T19:01:43.572Z,0.80
2022-11-16T19:04:11.856Z,0.80
2022-11-16T19:06:40.132Z,0.80
2022-11-16T19:09:08.619Z,0.60
2022-11-16T19:11:36.902Z,0.90
2022-11-16T19:14:05.179Z,0.90
2022-11-16T19:16:34.386Z,0.80
2022-11-16T19:19:02.872Z,0.80
2022-11-16T19:21:31.867Z,0.90
2022-11-16T19:24:00.111Z,0.90
2022-11-16T19:26:28.333Z,0.70
2022-11-16T19:28:56.775Z,0.80
2022-11-16T19:31:27.446Z,0.70
2022-11-16T19:34:07.165Z,0.50
2022-11-16T19:36:37.083Z,0.80
2022-11-16T19:39:06.302Z,0.90
2022-11-16T19:41:34.693Z,0.80
2022-11-16T19:44:03.149Z,0.50
2022-11-16T19:46:34.684Z,0.50
2022-11-16T19:49:03.321Z,0.50
2022-11-16T19:51:33.657Z,0.80
2022-11-16T19:54:03.058Z,0.80
2022-11-16T19:56:31.759Z,0.80
2022-11-16T19:59:00.231Z,0.80
2022-11-16T20:01:28.961Z,0.80
2022-11-16T20:03:59.908Z,0.90
2022-11-16T20:06:34.014Z,0.60
2022-11-16T20:09:05.395Z,0.80
2022-11-16T20:11:34.223Z,0.60
2022-11-16T20:14:06.414Z,0.60
2022-11-16T20:16:39.243Z,0.60
2022-11-16T20:19:09.412Z,0.60
2022-11-16T20:21:43.255Z,0.80
2022-11-16T20:24:14.981Z,0.70
2022-11-16T20:26:45.753Z,0.50
2022-11-16T20:29:16.041Z,0.50
2022-11-16T20:31:45.120Z,0.50
2022-11-16T20:34:15.972Z,0.60
2022-11-16T20:36:47.118Z,0.60
2022-11-16T20:39:20.508Z,0.50
2022-11-16T20:41:49.108Z,0.50
2022-11-16T20:44:19.105Z,0.50
2022-11-16T20:46:47.601Z,0.40
2022-11-16T20:49:16.491Z,0.50
2022-11-16T20:51:44.888Z,0.40
2022-11-16T20:54:13.359Z,0.50
2022-11-16T20:56:41.678Z,0.70
2022-11-16T20:59:10.433Z,0.60
2022-11-16T21:01:38.998Z,0.50
2022-11-16T21:04:07.401Z,0.40
2022-11-16T21:06:35.817Z,0.30
2022-11-16T21:09:04.727Z,0.40
2022-11-16T21:11:33.894Z,0.50
2022-11-16T21:14:02.179Z,0.50
2022-11-16T21:16:31.777Z,1.00
2022-11-16T21:19:00.781Z,0.40
2022-11-16T21:21:29.667Z,0.70
2022-11-16T21:23:58.303Z,0.40
2022-11-16T21:26:32.436Z,0.20
2022-11-16T21:29:02.547Z,0.30
2022-11-16T21:31:33.806Z,0.50
2022-11-16T21:34:02.687Z,0.40
2022-11-16T21:36:32.446Z,0.40
2022-11-16T21:39:01.759Z,0.40
2022-11-16T21:41:31.196Z,0.30
2022-11-16T21:43:59.474Z,0.40
2022-11-16T21:46:28.145Z,0.30
2022-11-16T21:48:56.922Z,0.30
2022-11-16T21:51:27.285Z,0.60
2022-11-16T21:53:55.740Z,0.40
2022-11-16T21:56:25.488Z,0.30
2022-11-16T21:58:54.350Z,0.40
2022-11-16T22:01:23.967Z,0.40
2022-11-16T22:03:52.549Z,0.30
2022-11-16T22:06:20.617Z,0.40
2022-11-16T22:08:49.255Z,0.40
2022-11-16T22:11:18.409Z,0.40
2022-11-16T22:13:46.592Z,0.30
2022-11-16T22:16:16.403Z,0.30
2022-11-16T22:18:44.792Z,0.60
2022-11-16T22:21:13.679Z,0.40
2022-11-16T22:23:42.071Z,0.30
2022-11-16T22:26:12.785Z,0.40
2022-11-16T22:28:41.897Z,0.30
2022-11-16T22:31:14.960Z,0.30
2022-11-16T22:33:43.377Z,0.30
2022-11-16T22:36:11.768Z,0.70
2022-11-16T22:38:40.135Z,0.30
2022-11-16T22:41:09.446Z,0.40
2022-11-16T22:43:38.126Z,0.30
2022-11-16T22:46:06.972Z,0.20
2022-11-16T22:48:40.212Z,0.30
2022-11-16T22:51:11.672Z,0.30
2022-11-16T22:53:39.957Z,0.30
2022-11-16T22:56:10.199Z,0.30
2022-11-16T22:58:39.787Z,0.30
2022-11-16T23:01:09.245Z,0.20
2022-11-16T23:03:38.772Z,0.30
2022-11-16T23:06:07.598Z,0.40
2022-11-16T23:08:37.011Z,0.30
2022-11-16T23:11:12.288Z,0.30
2022-11-16T23:13:41.479Z,0.20
2022-11-16T23:16:10.677Z,0.20
2022-11-16T23:18:39.056Z,0.20
2022-11-16T23:21:07.436Z,0.20
2022-11-16T23:23:36.112Z,0.20
2022-11-16T23:26:12.291Z,0.20
2022-11-16T23:28:42.305Z,0.20
2022-11-16T23:31:10.683Z,0.20
2022-11-16T23:33:38.856Z,0.20
2022-11-16T23:36:07.537Z,0.20
2022-11-16T23:38:35.825Z,0.20
2022-11-16T23:41:05.026Z,0.20
2022-11-16T23:43:33.808Z,0.20
2022-11-16T23:46:02.311Z,0.20
2022-11-16T23:48:31.708Z,0.20
2022-11-16T23:50:59.885Z,0.20
2022-11-16T23:53:28.164Z,0.20
2022-11-16T23:56:05.713Z,0.20
2022-11-16T23:58:34.545Z,0.30
